createdAt,value
2023-04-11T00:00:41.407Z,1021.60
2023-04-11T00:01:41.522Z,1021.59
2023-04-11T00:02:41.722Z,1021.58
2023-04-11T00:03:41.704Z,1021.58
2023-04-11T00:04:41.582Z,1021.57
2023-04-11T00:05:41.415Z,1021.53
2023-04-11T00:06:41.419Z,1021.56
2023-04-11T00:07:41.420Z,1021.55
2023-04-11T00:08:41.415Z,1021.54
2023-04-11T00:09:41.420Z,1021.48
2023-04-11T00:10:42.103Z,1021.51
2023-04-11T00:11:41.415Z,1021.47
2023-04-11T00:12:41.414Z,1021.48
2023-04-11T00:13:41.418Z,1021.48
2023-04-11T00:14:41.448Z,1021.47
2023-04-11T00:15:41.424Z,1021.46
2023-04-11T00:16:41.554Z,1021.44
2023-04-11T00:17:41.483Z,1021.42
2023-04-11T00:18:41.428Z,1021.43
2023-04-11T00:19:41.430Z,1021.40
2023-04-11T00:20:41.445Z,1021.44
2023-04-11T00:21:41.434Z,1021.44
2023-04-11T00:22:41.432Z,1021.39
2023-04-11T00:23:41.447Z,1021.40
2023-04-11T00:24:41.439Z,1021.39
2023-04-11T00:25:41.447Z,1021.34
2023-04-11T00:26:41.441Z,1021.36
2023-04-11T00:27:41.443Z,1021.32
2023-04-11T00:28:41.442Z,1021.36
2023-04-11T00:29:41.482Z,1021.31
2023-04-11T00:30:41.481Z,1021.28
2023-04-11T00:31:41.466Z,1021.30
2023-04-11T00:32:41.473Z,1021.27
2023-04-11T00:33:41.450Z,1021.24
2023-04-11T00:34:41.454Z,1021.30
2023-04-11T00:35:41.478Z,1021.29
2023-04-11T00:36:41.522Z,1021.32
2023-04-11T00:37:41.457Z,1021.30
2023-04-11T00:38:41.456Z,1021.28
2023-04-11T00:39:41.467Z,1021.28
2023-04-11T00:40:41.459Z,1021.28
2023-04-11T00:41:41.465Z,1021.24
2023-04-11T00:42:41.464Z,1021.24
2023-04-11T00:43:41.464Z,1021.21
2023-04-11T00:44:41.465Z,1021.20
2023-04-11T00:45:41.498Z,1021.24
2023-04-11T00:46:41.498Z,1021.21
2023-04-11T00:47:41.530Z,1021.18
2023-04-11T00:48:41.475Z,1021.20
2023-04-11T00:49:41.473Z,1021.18
2023-04-11T00:50:41.478Z,1021.20
2023-04-11T00:51:41.493Z,1021.21
2023-04-11T00:52:41.478Z,1021.18
2023-04-11T00:53:41.481Z,1021.21
2023-04-11T00:54:41.488Z,1021.21
2023-04-11T00:55:41.496Z,1021.17
2023-04-11T00:56:41.485Z,1021.17
2023-04-11T00:57:41.485Z,1021.13
2023-04-11T00:58:41.499Z,1021.12
2023-04-11T00:59:41.494Z,1021.07
2023-04-11T01:00:41.521Z,1021.07
2023-04-11T01:01:41.569Z,1021.06
2023-04-11T01:02:41.652Z,1021.06
2023-04-11T01:03:41.590Z,1021.02
2023-04-11T01:04:41.508Z,1021.04
2023-04-11T01:05:41.508Z,1021.06
2023-04-11T01:06:41.505Z,1021.05
2023-04-11T01:07:41.507Z,1021.07
2023-04-11T01:08:41.510Z,1020.99
2023-04-11T01:09:41.509Z,1021.01
2023-04-11T01:10:41.511Z,1021.02
2023-04-11T01:11:41.520Z,1020.99
2023-04-11T01:12:41.524Z,1020.97
2023-04-11T01:13:41.528Z,1020.98
2023-04-11T01:14:41.525Z,1020.94
2023-04-11T01:15:41.521Z,1020.94
2023-04-11T01:16:41.579Z,1020.95
2023-04-11T01:17:41.583Z,1020.92
2023-04-11T01:18:41.561Z,1020.91
2023-04-11T01:19:41.536Z,1020.90
2023-04-11T01:20:41.527Z,1020.87
2023-04-11T01:21:41.531Z,1020.89
2023-04-11T01:22:41.534Z,1020.87
2023-04-11T01:23:41.538Z,1020.83
2023-04-11T01:24:41.534Z,1020.86
2023-04-11T01:25:41.551Z,1020.83
2023-04-11T01:26:41.541Z,1020.89
2023-04-11T01:27:41.542Z,1020.81
2023-04-11T01:28:41.556Z,1020.82
2023-04-11T01:29:41.544Z,1020.83
2023-04-11T01:30:41.585Z,1020.79
2023-04-11T01:31:41.551Z,1020.81
2023-04-11T01:32:41.570Z,1020.78
2023-04-11T01:33:41.553Z,1020.75
2023-04-11T01:34:41.577Z,1020.77
2023-04-11T01:35:41.573Z,1020.78
2023-04-11T01:36:41.555Z,1020.79
2023-04-11T01:37:41.611Z,1020.79
2023-04-11T01:38:41.558Z,1020.78
2023-04-11T01:39:41.560Z,1020.78
2023-04-11T01:40:41.577Z,1020.76
2023-04-11T01:41:41.560Z,1020.71
2023-04-11T01:42:41.566Z,1020.74
2023-04-11T01:43:41.562Z,1020.71
2023-04-11T01:44:41.566Z,1020.74
2023-04-11T01:45:41.575Z,1020.73
2023-04-11T01:46:41.570Z,1020.75
2023-04-11T01:47:41.657Z,1020.73
2023-04-11T01:48:41.623Z,1020.70
2023-04-11T01:49:41.579Z,1020.69
2023-04-11T01:50:41.599Z,1020.69
2023-04-11T01:51:41.586Z,1020.71
2023-04-11T01:52:41.579Z,1020.69
2023-04-11T01:53:41.580Z,1020.69
2023-04-11T01:54:41.579Z,1020.70
2023-04-11T01:55:41.579Z,1020.69
2023-04-11T01:56:41.580Z,1020.69
2023-04-11T01:57:41.581Z,1020.64
2023-04-11T01:58:41.589Z,1020.63
2023-04-11T01:59:41.596Z,1020.66
2023-04-11T02:00:41.597Z,1020.66
2023-04-11T02:01:41.736Z,1020.68
2023-04-11T02:02:41.728Z,1020.69
2023-04-11T02:03:41.691Z,1020.64
2023-04-11T02:04:41.599Z,1020.64
2023-04-11T02:05:41.596Z,1020.64
2023-04-11T02:06:41.620Z,1020.60
2023-04-11T02:07:41.604Z,1020.62
2023-04-11T02:08:41.593Z,1020.63
2023-04-11T02:09:41.606Z,1020.60
2023-04-11T02:10:41.605Z,1020.61
2023-04-11T02:11:41.615Z,1020.60
2023-04-11T02:12:41.608Z,1020.61
2023-04-11T02:13:41.606Z,1020.59
2023-04-11T02:14:41.607Z,1020.60
2023-04-11T02:15:41.645Z,1020.59
2023-04-11T02:16:41.612Z,1020.59
2023-04-11T02:17:41.631Z,1020.54
2023-04-11T02:18:41.617Z,1020.55
2023-04-11T02:19:41.619Z,1020.54
2023-04-11T02:20:41.620Z,1020.52
2023-04-11T02:21:41.629Z,1020.47
2023-04-11T02:22:41.656Z,1020.50
2023-04-11T02:23:41.629Z,1020.44
2023-04-11T02:24:41.621Z,1020.47
2023-04-11T02:25:41.631Z,1020.40
2023-04-11T02:26:41.629Z,1020.40
2023-04-11T02:27:41.633Z,1020.41
2023-04-11T02:28:41.638Z,1020.41
2023-04-11T02:29:41.649Z,1020.43
2023-04-11T02:30:41.731Z,1020.39
2023-04-11T02:31:41.695Z,1020.37
2023-04-11T02:32:41.659Z,1020.38
2023-04-11T02:33:41.643Z,1020.35
2023-04-11T02:34:41.654Z,1020.33
2023-04-11T02:35:41.720Z,1020.29
2023-04-11T02:36:41.650Z,1020.29
2023-04-11T02:37:41.644Z,1020.27
2023-04-11T02:38:41.672Z,1020.26
2023-04-11T02:39:41.659Z,1020.22
2023-04-11T02:40:41.655Z,1020.22
2023-04-11T02:41:41.654Z,1020.18
2023-04-11T02:42:41.651Z,1020.15
2023-04-11T02:43:41.667Z,1020.17
2023-04-11T02:44:41.650Z,1020.11
2023-04-11T02:45:41.659Z,1020.13
2023-04-11T02:46:41.698Z,1020.12
2023-04-11T02:47:41.697Z,1020.08
2023-04-11T02:48:41.672Z,1020.06
2023-04-11T02:49:41.667Z,1020.06
2023-04-11T02:50:41.660Z,1020.02
2023-04-11T02:51:41.675Z,1019.99
2023-04-11T02:52:41.664Z,1019.96
2023-04-11T02:53:41.675Z,1019.94
2023-04-11T02:54:41.994Z,1019.95
2023-04-11T02:55:41.682Z,1019.93
2023-04-11T02:56:41.671Z,1019.93
2023-04-11T02:57:41.677Z,1019.89
2023-04-11T02:58:41.955Z,1019.90
2023-04-11T02:59:41.845Z,1019.84
2023-04-11T03:00:41.677Z,1019.90
2023-04-11T03:01:41.837Z,1019.83
2023-04-11T03:02:41.880Z,1019.85
2023-04-11T03:03:41.768Z,1019.81
2023-04-11T03:04:41.836Z,1019.81
2023-04-11T03:05:41.686Z,1019.75
2023-04-11T03:06:41.681Z,1019.82
2023-04-11T03:07:41.693Z,1019.77
2023-04-11T03:08:41.700Z,1019.80
2023-04-11T03:09:41.686Z,1019.78
2023-04-11T03:10:41.713Z,1019.74
2023-04-11T03:11:41.697Z,1019.76
2023-04-11T03:12:41.699Z,1019.71
2023-04-11T03:13:41.705Z,1019.73
2023-04-11T03:14:41.848Z,1019.70
2023-04-11T03:15:41.791Z,1019.73
2023-04-11T03:16:41.703Z,1019.72
2023-04-11T03:17:41.741Z,1019.72
2023-04-11T03:18:41.710Z,1019.71
2023-04-11T03:19:41.712Z,1019.71
2023-04-11T03:20:41.719Z,1019.67
2023-04-11T03:21:41.716Z,1019.68
2023-04-11T03:22:41.713Z,1019.66
2023-04-11T03:23:41.726Z,1019.67
2023-04-11T03:24:41.861Z,1019.65
2023-04-11T03:25:41.708Z,1019.64
2023-04-11T03:26:41.736Z,1019.65
2023-04-11T03:27:41.722Z,1019.64
2023-04-11T03:28:41.725Z,1019.65
2023-04-11T03:29:43.528Z,1019.63
2023-04-11T03:30:41.724Z,1019.64
2023-04-11T03:31:41.750Z,1019.65
2023-04-11T03:32:41.828Z,1019.63
2023-04-11T03:33:41.722Z,1019.62
2023-04-11T03:34:41.732Z,1019.61
2023-04-11T03:35:41.756Z,1019.58
2023-04-11T03:36:41.733Z,1019.61
2023-04-11T03:37:41.827Z,1019.55
2023-04-11T03:38:41.741Z,1019.57
2023-04-11T03:39:41.742Z,1019.57
2023-04-11T03:40:41.746Z,1019.59
2023-04-11T03:41:41.751Z,1019.52
2023-04-11T03:42:41.890Z,1019.60
2023-04-11T03:43:41.741Z,1019.52
2023-04-11T03:44:41.750Z,1019.54
2023-04-11T03:45:41.845Z,1019.54
2023-04-11T03:46:41.875Z,1019.56
2023-04-11T03:47:41.826Z,1019.55
2023-04-11T03:48:41.753Z,1019.56
2023-04-11T03:49:41.753Z,1019.53
2023-04-11T03:50:41.752Z,1019.51
2023-04-11T03:51:41.753Z,1019.51
2023-04-11T03:52:41.770Z,1019.51
2023-04-11T03:53:41.754Z,1019.46
2023-04-11T03:54:41.764Z,1019.50
2023-04-11T03:55:41.757Z,1019.53
2023-04-11T03:56:41.764Z,1019.51
2023-04-11T03:57:41.759Z,1019.49
2023-04-11T03:58:41.786Z,1019.47
2023-04-11T03:59:41.761Z,1019.47
2023-04-11T04:00:41.767Z,1019.45
2023-04-11T04:01:41.834Z,1019.43
2023-04-11T04:02:42.044Z,1019.45
2023-04-11T04:03:42.091Z,1019.39
2023-04-11T04:04:41.912Z,1019.38
2023-04-11T04:05:41.774Z,1019.36
2023-04-11T04:06:41.787Z,1019.36
2023-04-11T04:07:41.778Z,1019.36
2023-04-11T04:08:41.781Z,1019.32
2023-04-11T04:09:41.776Z,1019.35
2023-04-11T04:10:41.826Z,1019.33
2023-04-11T04:11:41.785Z,1019.33
2023-04-11T04:12:41.782Z,1019.33
2023-04-11T04:13:41.782Z,1019.32
2023-04-11T04:14:41.803Z,1019.29
2023-04-11T04:15:41.783Z,1019.31
2023-04-11T04:16:41.824Z,1019.30
2023-04-11T04:17:41.983Z,1019.26
2023-04-11T04:18:41.816Z,1019.26
2023-04-11T04:19:41.799Z,1019.25
2023-04-11T04:20:41.795Z,1019.25
2023-04-11T04:21:41.794Z,1019.18
2023-04-11T04:22:41.801Z,1019.16
2023-04-11T04:23:41.794Z,1019.20
2023-04-11T04:24:41.808Z,1019.16
2023-04-11T04:25:41.819Z,1019.14
2023-04-11T04:26:41.799Z,1019.15
2023-04-11T04:27:41.812Z,1019.17
2023-04-11T04:28:41.804Z,1019.14
2023-04-11T04:29:41.803Z,1019.15
2023-04-11T04:30:41.827Z,1019.18
2023-04-11T04:31:41.842Z,1019.23
2023-04-11T04:32:41.828Z,1019.18
2023-04-11T04:33:41.815Z,1019.14
2023-04-11T04:34:41.822Z,1019.17
2023-04-11T04:35:41.842Z,1019.20
2023-04-11T04:36:41.812Z,1019.19
2023-04-11T04:37:41.813Z,1019.21
2023-04-11T04:38:41.817Z,1019.20
2023-04-11T04:39:41.830Z,1019.21
2023-04-11T04:40:41.820Z,1019.18
2023-04-11T04:41:41.834Z,1019.15
2023-04-11T04:42:41.821Z,1019.17
2023-04-11T04:43:41.824Z,1019.12
2023-04-11T04:44:41.837Z,1019.17
2023-04-11T04:45:42.118Z,1019.19
2023-04-11T04:46:41.850Z,1019.21
2023-04-11T04:47:41.829Z,1019.19
2023-04-11T04:48:41.836Z,1019.24
2023-04-11T04:49:41.835Z,1019.27
2023-04-11T04:50:41.938Z,1019.23
2023-04-11T04:51:41.847Z,1019.28
2023-04-11T04:52:41.833Z,1019.25
2023-04-11T04:53:41.842Z,1019.24
2023-04-11T04:54:41.855Z,1019.26
2023-04-11T04:55:41.847Z,1019.25
2023-04-11T04:56:41.840Z,1019.23
2023-04-11T04:57:41.837Z,1019.20
2023-04-11T04:58:41.850Z,1019.18
2023-04-11T04:59:41.845Z,1019.15
2023-04-11T05:00:41.850Z,1019.16
2023-04-11T05:01:41.956Z,1019.17
2023-04-11T05:02:41.958Z,1019.12
2023-04-11T05:03:41.957Z,1019.09
2023-04-11T05:04:41.854Z,1019.05
2023-04-11T05:05:41.855Z,1019.07
2023-04-11T05:06:41.865Z,1019.04
2023-04-11T05:07:41.851Z,1018.96
2023-04-11T05:08:41.862Z,1019.00
2023-04-11T05:09:41.857Z,1018.98
2023-04-11T05:10:41.864Z,1019.01
2023-04-11T05:11:41.869Z,1018.92
2023-04-11T05:12:41.858Z,1018.93
2023-04-11T05:13:41.868Z,1018.91
2023-04-11T05:14:41.869Z,1018.88
2023-04-11T05:15:41.870Z,1018.86
2023-04-11T05:16:41.915Z,1018.88
2023-04-11T05:17:41.918Z,1018.85
2023-04-11T05:18:41.919Z,1018.87
2023-04-11T05:19:41.871Z,1018.86
2023-04-11T05:20:42.130Z,1018.84
2023-04-11T05:21:41.875Z,1018.84
2023-04-11T05:22:41.877Z,1018.83
2023-04-11T05:23:41.885Z,1018.82
2023-04-11T05:24:41.881Z,1018.83
2023-04-11T05:25:41.882Z,1018.80
2023-04-11T05:26:41.886Z,1018.83
2023-04-11T05:27:41.880Z,1018.80
2023-04-11T05:28:41.885Z,1018.81
2023-04-11T05:29:41.882Z,1018.77
2023-04-11T05:30:41.907Z,1018.78
2023-04-11T05:31:41.886Z,1018.76
2023-04-11T05:32:41.918Z,1018.73
2023-04-11T05:33:41.890Z,1018.69
2023-04-11T05:34:41.923Z,1018.62
2023-04-11T05:35:42.000Z,1018.63
2023-04-11T05:36:41.896Z,1018.66
2023-04-11T05:37:41.899Z,1018.60
2023-04-11T05:38:41.910Z,1018.60
2023-04-11T05:39:41.902Z,1018.59
2023-04-11T05:40:41.911Z,1018.63
2023-04-11T05:41:41.952Z,1018.59
2023-04-11T05:42:41.909Z,1018.60
2023-04-11T05:43:41.909Z,1018.60
2023-04-11T05:44:41.909Z,1018.58
2023-04-11T05:45:42.010Z,1018.61
2023-04-11T05:46:41.918Z,1018.56
2023-04-11T05:47:41.993Z,1018.59
2023-04-11T05:48:41.926Z,1018.58
2023-04-11T05:49:41.922Z,1018.58
2023-04-11T05:50:41.949Z,1018.56
2023-04-11T05:51:41.919Z,1018.56
2023-04-11T05:52:41.921Z,1018.58
2023-04-11T05:53:41.922Z,1018.55
2023-04-11T05:54:41.918Z,1018.55
2023-04-11T05:55:41.932Z,1018.54
2023-04-11T05:56:41.925Z,1018.55
2023-04-11T05:57:41.922Z,1018.52
2023-04-11T05:58:41.931Z,1018.54
2023-04-11T05:59:41.933Z,1018.52
2023-04-11T06:00:41.930Z,1018.57
2023-04-11T06:01:41.945Z,1018.53
2023-04-11T06:02:42.066Z,1018.54
2023-04-11T06:03:41.985Z,1018.54
2023-04-11T06:04:42.093Z,1018.54
2023-04-11T06:05:41.950Z,1018.48
2023-04-11T06:06:41.985Z,1018.49
2023-04-11T06:07:41.939Z,1018.50
2023-04-11T06:08:41.950Z,1018.47
2023-04-11T06:09:41.938Z,1018.48
2023-04-11T06:10:41.952Z,1018.44
2023-04-11T06:11:41.950Z,1018.39
2023-04-11T06:12:41.949Z,1018.40
2023-04-11T06:13:41.944Z,1018.45
2023-04-11T06:14:41.955Z,1018.37
2023-04-11T06:15:42.016Z,1018.39
2023-04-11T06:16:41.951Z,1018.41
2023-04-11T06:17:41.985Z,1018.37
2023-04-11T06:18:41.956Z,1018.43
2023-04-11T06:19:41.964Z,1018.37
2023-04-11T06:20:41.960Z,1018.44
2023-04-11T06:21:41.959Z,1018.44
2023-04-11T06:22:42.098Z,1018.46
2023-04-11T06:23:41.981Z,1018.43
2023-04-11T06:24:41.964Z,1018.41
2023-04-11T06:25:41.987Z,1018.42
2023-04-11T06:26:41.967Z,1018.52
2023-04-11T06:27:41.974Z,1018.39
2023-04-11T06:28:41.966Z,1018.47
2023-04-11T06:29:41.973Z,1018.45
2023-04-11T06:30:42.028Z,1018.39
2023-04-11T06:31:42.048Z,1018.45
2023-04-11T06:32:42.024Z,1018.41
2023-04-11T06:33:41.982Z,1018.40
2023-04-11T06:34:41.992Z,1018.40
2023-04-11T06:35:41.997Z,1018.37
2023-04-11T06:36:41.981Z,1018.37
2023-04-11T06:37:41.986Z,1018.32
2023-04-11T06:38:42.062Z,1018.34
2023-04-11T06:39:41.990Z,1018.24
2023-04-11T06:40:41.998Z,1018.23
2023-04-11T06:41:41.998Z,1018.25
2023-04-11T06:42:41.996Z,1018.25
2023-04-11T06:43:42.010Z,1018.25
2023-04-11T06:44:42.068Z,1018.28
2023-04-11T06:45:41.996Z,1018.30
2023-04-11T06:46:42.028Z,1018.24
2023-04-11T06:47:42.021Z,1018.24
2023-04-11T06:48:42.012Z,1018.24
2023-04-11T06:49:42.007Z,1018.21
2023-04-11T06:50:42.009Z,1018.22
2023-04-11T06:51:42.006Z,1018.20
2023-04-11T06:52:42.030Z,1018.23
2023-04-11T06:53:42.013Z,1018.21
2023-04-11T06:54:42.045Z,1018.22
2023-04-11T06:55:42.024Z,1018.21
2023-04-11T06:56:42.025Z,1018.15
2023-04-11T06:57:42.021Z,1018.18
2023-04-11T06:58:42.032Z,1018.18
2023-04-11T06:59:42.046Z,1018.17
2023-04-11T07:00:42.019Z,1018.20
2023-04-11T07:01:42.170Z,1018.20
2023-04-11T07:02:42.217Z,1018.18
2023-04-11T07:03:42.228Z,1018.16
2023-04-11T07:04:42.089Z,1018.14
2023-04-11T07:05:42.050Z,1018.15
2023-04-11T07:06:42.039Z,1018.11
2023-04-11T07:07:42.035Z,1018.12
2023-04-11T07:08:42.037Z,1018.10
2023-04-11T07:09:42.037Z,1018.09
2023-04-11T07:10:42.064Z,1018.07
2023-04-11T07:11:42.055Z,1018.07
2023-04-11T07:12:42.042Z,1018.08
2023-04-11T07:13:42.077Z,1018.10
2023-04-11T07:14:42.043Z,1018.06
2023-04-11T07:15:42.038Z,1018.10
2023-04-11T07:16:42.086Z,1018.11
2023-04-11T07:17:42.138Z,1018.12
2023-04-11T07:18:42.067Z,1018.09
2023-04-11T07:19:42.059Z,1018.10
2023-04-11T07:20:42.054Z,1018.06
2023-04-11T07:21:42.061Z,1018.10
2023-04-11T07:22:42.052Z,1018.09
2023-04-11T07:23:42.058Z,1018.05
2023-04-11T07:24:42.063Z,1018.05
2023-04-11T07:25:42.064Z,1017.99
2023-04-11T07:26:42.390Z,1018.00
2023-04-11T07:27:42.069Z,1017.99
2023-04-11T07:28:42.071Z,1017.98
2023-04-11T07:29:42.070Z,1017.92
2023-04-11T07:30:42.076Z,1017.94
2023-04-11T07:31:42.152Z,1017.92
2023-04-11T07:32:42.136Z,1017.94
2023-04-11T07:33:42.087Z,1017.92
2023-04-11T07:34:42.114Z,1017.95
2023-04-11T07:35:42.109Z,1017.91
2023-04-11T07:36:42.081Z,1017.93
2023-04-11T07:37:42.089Z,1017.89
2023-04-11T07:38:42.082Z,1017.91
2023-04-11T07:39:42.093Z,1017.92
2023-04-11T07:40:42.285Z,1017.93
2023-04-11T07:41:42.090Z,1017.90
2023-04-11T07:42:42.103Z,1017.90
2023-04-11T07:43:42.095Z,1017.91
2023-04-11T07:44:42.121Z,1017.93
2023-04-11T07:45:42.129Z,1017.91
2023-04-11T07:46:42.163Z,1017.89
2023-04-11T07:47:42.139Z,1017.89
2023-04-11T07:48:42.100Z,1017.87
2023-04-11T07:49:42.110Z,1017.90
2023-04-11T07:50:42.106Z,1017.91
2023-04-11T07:51:42.122Z,1017.87
2023-04-11T07:52:42.119Z,1017.87
2023-04-11T07:53:42.104Z,1017.89
2023-04-11T07:54:42.107Z,1017.88
2023-04-11T07:55:42.112Z,1017.90
2023-04-11T07:56:42.103Z,1017.88
2023-04-11T07:57:42.142Z,1017.86
2023-04-11T07:58:42.136Z,1017.84
2023-04-11T07:59:42.124Z,1017.81
2023-04-11T08:00:42.110Z,1017.85
2023-04-11T08:01:42.373Z,1017.79
2023-04-11T08:02:42.294Z,1017.82
2023-04-11T08:03:42.196Z,1017.85
2023-04-11T08:04:42.323Z,1017.83
2023-04-11T08:05:42.120Z,1017.82
2023-04-11T08:06:42.128Z,1017.83
2023-04-11T08:07:42.145Z,1017.78
2023-04-11T08:08:42.130Z,1017.77
2023-04-11T08:09:42.135Z,1017.80
2023-04-11T08:10:42.149Z,1017.76
2023-04-11T08:11:42.142Z,1017.75
2023-04-11T08:12:42.153Z,1017.73
2023-04-11T08:13:42.142Z,1017.73
2023-04-11T08:14:42.185Z,1017.77
2023-04-11T08:15:42.151Z,1017.69
2023-04-11T08:16:42.168Z,1017.75
2023-04-11T08:17:42.186Z,1017.75
2023-04-11T08:18:42.537Z,1017.73
2023-04-11T08:19:42.160Z,1017.74
2023-04-11T08:20:42.177Z,1017.75
2023-04-11T08:21:42.159Z,1017.75
2023-04-11T08:22:42.166Z,1017.71
2023-04-11T08:23:42.473Z,1017.70
2023-04-11T08:24:42.157Z,1017.71
2023-04-11T08:25:42.166Z,1017.69
2023-04-11T08:26:42.168Z,1017.72
2023-04-11T08:27:42.180Z,1017.72
2023-04-11T08:28:43.386Z,1017.70
2023-04-11T08:29:42.173Z,1017.69
2023-04-11T08:30:42.240Z,1017.69
2023-04-11T08:31:42.181Z,1017.65
2023-04-11T08:32:42.265Z,1017.63
2023-04-11T08:33:42.187Z,1017.65
2023-04-11T08:34:42.183Z,1017.61
2023-04-11T08:35:42.215Z,1017.57
2023-04-11T08:36:42.201Z,1017.54
2023-04-11T08:37:42.184Z,1017.57
2023-04-11T08:38:42.188Z,1017.57
2023-04-11T08:39:42.191Z,1017.58
2023-04-11T08:40:42.215Z,1017.56
2023-04-11T08:41:42.194Z,1017.55
2023-04-11T08:42:42.195Z,1017.57
2023-04-11T08:43:42.197Z,1017.54
2023-04-11T08:44:42.194Z,1017.55
2023-04-11T08:45:42.233Z,1017.56
2023-04-11T08:46:42.221Z,1017.52
2023-04-11T08:47:45.262Z,1017.49
2023-04-11T08:48:42.202Z,1017.57
2023-04-11T08:49:42.208Z,1017.55
2023-04-11T08:50:42.212Z,1017.53
2023-04-11T08:51:42.215Z,1017.54
2023-04-11T08:52:44.581Z,1017.54
2023-04-11T08:53:42.265Z,1017.48
2023-04-11T08:54:42.218Z,1017.48
2023-04-11T08:55:42.218Z,1017.47
2023-04-11T08:56:42.237Z,1017.48
2023-04-11T08:57:42.298Z,1017.48
2023-04-11T08:58:43.609Z,1017.45
2023-04-11T08:59:42.225Z,1017.46
2023-04-11T09:00:42.238Z,1017.38
2023-04-11T09:01:42.333Z,1017.40
2023-04-11T09:02:42.336Z,1017.40
2023-04-11T09:03:42.270Z,1017.43
2023-04-11T09:04:42.303Z,1017.41
2023-04-11T09:05:42.231Z,1017.41
2023-04-11T09:06:42.238Z,1017.42
2023-04-11T09:07:42.235Z,1017.45
2023-04-11T09:08:42.261Z,1017.43
2023-04-11T09:09:42.248Z,1017.40
2023-04-11T09:10:42.257Z,1017.36
2023-04-11T09:11:42.371Z,1017.38
2023-04-11T09:12:42.251Z,1017.33
2023-04-11T09:13:42.251Z,1017.33
2023-04-11T09:14:42.289Z,1017.27
2023-04-11T09:15:42.350Z,1017.25
2023-04-11T09:16:42.265Z,1017.28
2023-04-11T09:17:42.349Z,1017.22
2023-04-11T09:18:42.301Z,1017.25
2023-04-11T09:19:42.268Z,1017.23
2023-04-11T09:20:42.261Z,1017.25
2023-04-11T09:21:42.270Z,1017.25
2023-04-11T09:22:43.200Z,1017.23
2023-04-11T09:23:42.329Z,1017.25
2023-04-11T09:24:42.270Z,1017.16
2023-04-11T09:25:42.278Z,1017.14
2023-04-11T09:26:42.278Z,1017.12
2023-04-11T09:27:42.283Z,1017.16
2023-04-11T09:28:42.435Z,1017.12
2023-04-11T09:29:42.289Z,1017.14
2023-04-11T09:30:42.288Z,1017.19
2023-04-11T09:31:42.416Z,1017.25
2023-04-11T09:32:42.326Z,1017.23
2023-04-11T09:33:42.299Z,1017.30
2023-04-11T09:34:42.777Z,1017.33
2023-04-11T09:35:42.337Z,1017.34
2023-04-11T09:36:42.312Z,1017.33
2023-04-11T09:37:42.305Z,1017.39
2023-04-11T09:38:42.306Z,1017.36
2023-04-11T09:39:42.315Z,1017.34
2023-04-11T09:40:42.318Z,1017.35
2023-04-11T09:41:42.326Z,1017.37
2023-04-11T09:42:42.320Z,1017.35
2023-04-11T09:43:42.423Z,1017.35
2023-04-11T09:44:42.321Z,1017.34
2023-04-11T09:45:53.671Z,1017.38
2023-04-11T09:46:42.383Z,1017.34
2023-04-11T09:47:44.578Z,1017.26
2023-04-11T09:48:46.891Z,1017.31
2023-04-11T09:49:42.335Z,1017.31
2023-04-11T09:50:42.373Z,1017.30
2023-04-11T09:51:42.341Z,1017.27
2023-04-11T09:52:42.337Z,1017.21
2023-04-11T09:53:42.352Z,1017.25
2023-04-11T09:54:42.341Z,1017.25
2023-04-11T09:55:42.350Z,1017.22
2023-04-11T09:56:42.348Z,1017.20
2023-04-11T09:57:42.350Z,1017.16
2023-04-11T09:58:42.357Z,1017.16
2023-04-11T09:59:42.360Z,1017.20
2023-04-11T10:00:42.358Z,1017.20
2023-04-11T10:01:42.508Z,1017.20
2023-04-11T10:02:42.469Z,1017.23
2023-04-11T10:03:42.386Z,1017.21
2023-04-11T10:04:42.410Z,1017.21
2023-04-11T10:05:42.374Z,1017.16
2023-04-11T10:06:42.413Z,1017.12
2023-04-11T10:07:42.396Z,1017.12
2023-04-11T10:08:42.385Z,1017.18
2023-04-11T10:09:42.368Z,1017.18
2023-04-11T10:10:42.390Z,1017.14
2023-04-11T10:11:42.378Z,1017.16
2023-04-11T10:12:42.386Z,1017.15
2023-04-11T10:13:42.687Z,1017.17
2023-04-11T10:14:42.388Z,1017.16
2023-04-11T10:15:42.392Z,1017.22
2023-04-11T10:16:42.488Z,1017.19
2023-04-11T10:17:42.425Z,1017.18
2023-04-11T10:18:42.392Z,1017.19
2023-04-11T10:19:42.406Z,1017.11
2023-04-11T10:20:42.399Z,1017.09
2023-04-11T10:21:42.503Z,1017.03
2023-04-11T10:22:42.431Z,1017.05
2023-04-11T10:23:42.407Z,1017.04
2023-04-11T10:24:42.414Z,1017.06
2023-04-11T10:25:42.410Z,1017.04
2023-04-11T10:26:42.417Z,1017.03
2023-04-11T10:27:42.410Z,1017.01
2023-04-11T10:28:42.427Z,1017.01
2023-04-11T10:29:42.432Z,1017.00
2023-04-11T10:30:42.428Z,1017.01
2023-04-11T10:31:42.468Z,1017.02
2023-04-11T10:32:42.455Z,1017.03
2023-04-11T10:33:42.436Z,1016.99
2023-04-11T10:34:42.448Z,1017.00
2023-04-11T10:35:42.461Z,1016.97
2023-04-11T10:36:42.438Z,1016.99
2023-04-11T10:37:42.446Z,1016.99
2023-04-11T10:38:42.473Z,1017.04
2023-04-11T10:39:42.450Z,1017.01
2023-04-11T10:40:42.444Z,1016.98
2023-04-11T10:41:42.451Z,1016.94
2023-04-11T10:42:42.452Z,1016.97
2023-04-11T10:43:42.448Z,1016.94
2023-04-11T10:44:42.457Z,1016.99
2023-04-11T10:45:42.461Z,1016.90
2023-04-11T10:46:42.484Z,1016.90
2023-04-11T10:47:42.500Z,1016.92
2023-04-11T10:48:42.466Z,1016.90
2023-04-11T10:49:42.469Z,1016.92
2023-04-11T10:50:42.472Z,1016.97
2023-04-11T10:51:42.478Z,1016.95
2023-04-11T10:52:42.478Z,1016.93
2023-04-11T10:53:42.477Z,1016.88
2023-04-11T10:54:42.504Z,1016.92
2023-04-11T10:55:42.491Z,1016.89
2023-04-11T10:56:42.484Z,1016.85
2023-04-11T10:57:42.487Z,1016.86
2023-04-11T10:58:42.484Z,1016.79
2023-04-11T10:59:42.484Z,1016.82
2023-04-11T11:00:42.535Z,1016.77
2023-04-11T11:02:43.071Z,1016.75
2023-04-11T11:03:42.595Z,1016.74
2023-04-11T11:04:42.622Z,1016.72
2023-04-11T11:05:42.502Z,1016.77
2023-04-11T11:06:47.447Z,1016.76
2023-04-11T11:07:42.520Z,1016.77
2023-04-11T11:08:42.506Z,1016.80
2023-04-11T11:09:42.514Z,1016.75
2023-04-11T11:10:42.532Z,1016.76
2023-04-11T11:11:42.530Z,1016.74
2023-04-11T11:12:42.511Z,1016.74
2023-04-11T11:13:42.527Z,1016.77
2023-04-11T11:14:42.527Z,1016.69
2023-04-11T11:15:42.524Z,1016.68
2023-04-11T11:16:43.388Z,1016.65
2023-04-11T11:17:42.624Z,1016.69
2023-04-11T11:18:42.582Z,1016.68
2023-04-11T11:19:42.532Z,1016.66
2023-04-11T11:20:42.541Z,1016.66
2023-04-11T11:21:42.544Z,1016.68
2023-04-11T11:22:42.547Z,1016.65
2023-04-11T11:23:42.547Z,1016.66
2023-04-11T11:24:42.548Z,1016.69
2023-04-11T11:25:42.552Z,1016.66
2023-04-11T11:26:42.584Z,1016.69
2023-04-11T11:27:42.553Z,1016.67
2023-04-11T11:28:42.554Z,1016.65
2023-04-11T11:29:42.566Z,1016.64
2023-04-11T11:30:42.568Z,1016.65
2023-04-11T11:31:42.691Z,1016.63
2023-04-11T11:32:42.592Z,1016.64
2023-04-11T11:33:42.585Z,1016.66
2023-04-11T11:34:42.567Z,1016.59
2023-04-11T11:35:42.571Z,1016.60
2023-04-11T11:36:42.593Z,1016.57
2023-04-11T11:37:42.577Z,1016.56
2023-04-11T11:38:42.582Z,1016.64
2023-04-11T11:39:42.587Z,1016.56
2023-04-11T11:40:42.590Z,1016.54
2023-04-11T11:41:42.589Z,1016.55
2023-04-11T11:42:42.627Z,1016.53
2023-04-11T11:43:42.627Z,1016.51
2023-04-11T11:44:42.589Z,1016.58
2023-04-11T11:45:42.621Z,1016.53
2023-04-11T11:46:42.615Z,1016.52
2023-04-11T11:47:42.650Z,1016.52
2023-04-11T11:48:42.755Z,1016.54
2023-04-11T11:49:42.633Z,1016.52
2023-04-11T11:50:42.609Z,1016.49
2023-04-11T11:51:42.610Z,1016.59
2023-04-11T11:52:42.610Z,1016.54
2023-04-11T11:53:42.679Z,1016.55
2023-04-11T11:54:42.625Z,1016.48
2023-04-11T11:55:42.621Z,1016.51
2023-04-11T11:56:42.623Z,1016.54
2023-04-11T11:57:42.630Z,1016.45
2023-04-11T11:58:42.658Z,1016.48
2023-04-11T11:59:42.634Z,1016.40
2023-04-11T12:00:42.639Z,1016.45
2023-04-11T12:01:42.687Z,1016.42
2023-04-11T12:02:43.149Z,1016.47
2023-04-11T12:03:42.885Z,1016.40
2023-04-11T12:04:42.948Z,1016.38
2023-04-11T12:05:42.664Z,1016.39
2023-04-11T12:06:42.670Z,1016.41